sensor_id;sensor_type;location;lat;lon;timestamp;pressure;altitude;pressure_sealevel;temperature;humidity
74327;BME280;62745;51.060;13.786;2023-01-24T00:00:38;102395.28;;;2.30;90.89
74327;BME280;62745;51.060;13.786;2023-01-24T00:03:03;102389.75;;;2.35;90.32
74327;BME280;62745;51.060;13.786;2023-01-24T00:05:29;102403.19;;;2.30;91.00
74327;BME280;62745;51.060;13.786;2023-01-24T00:07:54;102409.16;;;2.80;89.69
74327;BME280;62745;51.060;13.786;2023-01-24T00:10:20;102399.75;;;2.60;89.12
74327;BME280;62745;51.060;13.786;2023-01-24T00:12:45;102407.06;;;2.70;87.79
74327;BME280;62745;51.060;13.786;2023-01-24T00:15:10;102413.03;;;2.74;88.19
74327;BME280;62745;51.060;13.786;2023-01-24T00:17:35;102404.38;;;2.56;88.55
74327;BME280;62745;51.060;13.786;2023-01-24T00:20:01;102408.19;;;2.51;90.05
74327;BME280;62745;51.060;13.786;2023-01-24T00:22:27;102381.59;;;2.24;90.51
74327;BME280;62745;51.060;13.786;2023-01-24T00:24:52;102407.88;;;2.25;90.25
74327;BME280;62745;51.060;13.786;2023-01-24T00:27:17;102383.78;;;2.16;89.79
74327;BME280;62745;51.060;13.786;2023-01-24T00:29:42;102399.94;;;2.57;88.84
74327;BME280;62745;51.060;13.786;2023-01-24T00:32:08;102407.97;;;2.39;89.84
74327;BME280;62745;51.060;13.786;2023-01-24T00:34:34;102397.75;;;2.02;90.98
74327;BME280;62745;51.060;13.786;2023-01-24T00:36:59;102390.94;;;1.98;91.69
74327;BME280;62745;51.060;13.786;2023-01-24T00:39:25;102359.84;;;1.89;91.35
74327;BME280;62745;51.060;13.786;2023-01-24T00:41:50;102382.00;;;2.16;90.81
74327;BME280;62745;51.060;13.786;2023-01-24T00:44:16;102399.47;;;2.03;91.44
74327;BME280;62745;51.060;13.786;2023-01-24T00:46:41;102415.09;;;2.06;91.41
74327;BME280;62745;51.060;13.786;2023-01-24T00:49:07;102415.97;;;2.06;92.00
74327;BME280;62745;51.060;13.786;2023-01-24T00:51:32;102369.94;;;1.80;92.11
74327;BME280;62745;51.060;13.786;2023-01-24T00:53:58;102415.34;;;2.17;90.70
74327;BME280;62745;51.060;13.786;2023-01-24T00:56:23;102428.19;;;2.07;91.69
74327;BME280;62745;51.060;13.786;2023-01-24T00:58:48;102396.47;;;1.93;91.71
74327;BME280;62745;51.060;13.786;2023-01-24T01:01:13;102401.56;;;1.96;90.93
74327;BME280;62745;51.060;13.786;2023-01-24T01:03:39;102399.88;;;1.95;90.79
74327;BME280;62745;51.060;13.786;2023-01-24T01:06:11;102412.75;;;1.84;91.42
74327;BME280;62745;51.060;13.786;2023-01-24T01:08:37;102442.22;;;1.92;92.39
74327;BME280;62745;51.060;13.786;2023-01-24T01:11:03;102420.59;;;2.01;90.93
74327;BME280;62745;51.060;13.786;2023-01-24T01:13:28;102431.88;;;2.21;90.80
74327;BME280;62745;51.060;13.786;2023-01-24T01:16:10;102430.69;;;2.26;90.99
74327;BME280;62745;51.060;13.786;2023-01-24T01:18:37;102401.66;;;1.95;90.87
74327;BME280;62745;51.060;13.786;2023-01-24T01:21:03;102425.66;;;2.22;90.12
74327;BME280;62745;51.060;13.786;2023-01-24T01:23:29;102404.81;;;2.33;90.38
74327;BME280;62745;51.060;13.786;2023-01-24T01:25:59;102408.63;;;2.43;88.48
74327;BME280;62745;51.060;13.786;2023-01-24T01:28:24;102405.50;;;2.36;89.61
74327;BME280;62745;51.060;13.786;2023-01-24T01:30:53;102417.53;;;2.72;89.07
74327;BME280;62745;51.060;13.786;2023-01-24T01:33:19;102418.97;;;2.78;88.50
74327;BME280;62745;51.060;13.786;2023-01-24T01:35:46;102409.19;;;2.64;88.44
74327;BME280;62745;51.060;13.786;2023-01-24T01:38:11;102413.91;;;2.59;88.92
74327;BME280;62745;51.060;13.786;2023-01-24T01:40:36;102379.28;;;2.33;89.03
74327;BME280;62745;51.060;13.786;2023-01-24T01:43:01;102399.03;;;2.26;88.65
74327;BME280;62745;51.060;13.786;2023-01-24T01:48:39;102408.56;;;2.29;89.89
74327;BME280;62745;51.060;13.786;2023-01-24T01:51:20;102415.44;;;2.16;90.62
74327;BME280;62745;51.060;13.786;2023-01-24T01:53:53;102407.94;;;1.92;91.35
74327;BME280;62745;51.060;13.786;2023-01-24T01:58:50;102396.81;;;1.87;91.82
74327;BME280;62745;51.060;13.786;2023-01-24T02:01:40;102407.09;;;1.92;91.86
74327;BME280;62745;51.060;13.786;2023-01-24T02:04:08;102393.16;;;2.05;91.26
74327;BME280;62745;51.060;13.786;2023-01-24T02:07:08;102376.41;;;1.91;90.60
74327;BME280;62745;51.060;13.786;2023-01-24T02:09:39;102364.56;;;1.98;90.78
74327;BME280;62745;51.060;13.786;2023-01-24T02:12:12;102398.34;;;2.23;89.77
74327;BME280;62745;51.060;13.786;2023-01-24T02:14:39;102372.66;;;1.95;90.33
74327;BME280;62745;51.060;13.786;2023-01-24T02:17:23;102373.69;;;2.24;90.82
74327;BME280;62745;51.060;13.786;2023-01-24T02:20:26;102377.56;;;2.32;89.54
74327;BME280;62745;51.060;13.786;2023-01-24T02:23:22;102362.28;;;2.23;89.20
74327;BME280;62745;51.060;13.786;2023-01-24T02:26:07;102392.66;;;2.30;90.13
74327;BME280;62745;51.060;13.786;2023-01-24T02:28:32;102355.41;;;2.21;89.02
74327;BME280;62745;51.060;13.786;2023-01-24T02:31:00;102373.53;;;2.11;90.57
74327;BME280;62745;51.060;13.786;2023-01-24T02:33:25;102375.31;;;2.26;89.99
74327;BME280;62745;51.060;13.786;2023-01-24T02:36:06;102365.59;;;2.11;89.66
74327;BME280;62745;51.060;13.786;2023-01-24T02:38:36;102363.47;;;2.18;90.17
74327;BME280;62745;51.060;13.786;2023-01-24T02:41:02;102387.19;;;2.18;89.79
74327;BME280;62745;51.060;13.786;2023-01-24T02:43:34;102389.78;;;2.19;89.93
74327;BME280;62745;51.060;13.786;2023-01-24T02:46:02;102386.44;;;2.16;90.52
74327;BME280;62745;51.060;13.786;2023-01-24T02:48:28;102382.28;;;2.11;90.58
74327;BME280;62745;51.060;13.786;2023-01-24T02:50:53;102398.94;;;2.28;89.54
74327;BME280;62745;51.060;13.786;2023-01-24T02:53:37;102380.22;;;2.01;91.07
74327;BME280;62745;51.060;13.786;2023-01-24T02:56:06;102376.72;;;1.85;91.34
74327;BME280;62745;51.060;13.786;2023-01-24T02:58:51;102391.63;;;2.01;91.24
74327;BME280;62745;51.060;13.786;2023-01-24T03:01:18;102379.91;;;2.07;90.21
74327;BME280;62745;51.060;13.786;2023-01-24T03:03:44;102393.09;;;2.07;90.79
74327;BME280;62745;51.060;13.786;2023-01-24T03:06:11;102393.94;;;2.07;90.33
74327;BME280;62745;51.060;13.786;2023-01-24T03:08:37;102381.16;;;1.84;90.53
74327;BME280;62745;51.060;13.786;2023-01-24T03:11:04;102389.50;;;1.92;90.80
74327;BME280;62745;51.060;13.786;2023-01-24T03:13:29;102393.34;;;2.02;90.65
74327;BME280;62745;51.060;13.786;2023-01-24T03:16:13;102403.09;;;2.16;91.04
74327;BME280;62745;51.060;13.786;2023-01-24T03:18:57;102397.25;;;2.11;89.44
74327;BME280;62745;51.060;13.786;2023-01-24T03:21:41;102376.06;;;1.97;89.99
74327;BME280;62745;51.060;13.786;2023-01-24T03:24:25;102367.22;;;1.98;90.04
74327;BME280;62745;51.060;13.786;2023-01-24T03:27:09;102400.91;;;2.08;90.31
74327;BME280;62745;51.060;13.786;2023-01-24T03:29:53;102404.72;;;1.87;90.82
74327;BME280;62745;51.060;13.786;2023-01-24T03:32:37;102383.72;;;2.01;90.46
74327;BME280;62745;51.060;13.786;2023-01-24T03:35:21;102399.88;;;1.95;90.84
74327;BME280;62745;51.060;13.786;2023-01-24T03:37:47;102408.63;;;1.96;90.72
74327;BME280;62745;51.060;13.786;2023-01-24T03:40:31;102402.47;;;1.79;91.68
74327;BME280;62745;51.060;13.786;2023-01-24T03:42:56;102400.47;;;2.00;91.90
74327;BME280;62745;51.060;13.786;2023-01-24T03:45:26;102394.94;;;1.89;90.97
74327;BME280;62745;51.060;13.786;2023-01-24T03:47:55;102391.78;;;1.98;90.98
74327;BME280;62745;51.060;13.786;2023-01-24T03:50:25;102408.31;;;2.02;91.45
74327;BME280;62745;51.060;13.786;2023-01-24T03:53:11;102379.38;;;2.00;90.30
74327;BME280;62745;51.060;13.786;2023-01-24T03:55:37;102392.31;;;1.89;90.95
74327;BME280;62745;51.060;13.786;2023-01-24T03:58:03;102391.78;;;1.98;90.34
74327;BME280;62745;51.060;13.786;2023-01-24T04:00:28;102364.84;;;2.09;89.92
74327;BME280;62745;51.060;13.786;2023-01-24T04:02:54;102393.75;;;2.10;90.23
74327;BME280;62745;51.060;13.786;2023-01-24T04:05:19;102382.09;;;2.15;89.88
74327;BME280;62745;51.060;13.786;2023-01-24T04:07:46;102394.03;;;2.06;89.86
74327;BME280;62745;51.060;13.786;2023-01-24T04:10:11;102387.72;;;2.08;89.55
74327;BME280;62745;51.060;13.786;2023-01-24T04:12:37;102400.31;;;2.03;90.71
74327;BME280;62745;51.060;13.786;2023-01-24T04:15:02;102398.94;;;2.12;90.34
74327;BME280;62745;51.060;13.786;2023-01-24T04:17:28;102379.22;;;2.03;90.59
74327;BME280;62745;51.060;13.786;2023-01-24T04:19:53;102392.03;;;1.94;90.78
74327;BME280;62745;51.060;13.786;2023-01-24T04:22:18;102371.28;;;1.72;90.65
74327;BME280;62745;51.060;13.786;2023-01-24T04:24:44;102391.47;;;1.89;91.41
74327;BME280;62745;51.060;13.786;2023-01-24T04:27:10;102398.50;;;1.88;90.66
74327;BME280;62745;51.060;13.786;2023-01-24T04:29:36;102390.44;;;1.91;90.94
74327;BME280;62745;51.060;13.786;2023-01-24T04:32:01;102399.97;;;2.09;91.00
74327;BME280;62745;51.060;13.786;2023-01-24T04:34:26;102400.41;;;2.02;91.03
74327;BME280;62745;51.060;13.786;2023-01-24T04:36:51;102377.31;;;1.74;91.14
74327;BME280;62745;51.060;13.786;2023-01-24T04:39:17;102374.59;;;1.75;91.07
74327;BME280;62745;51.060;13.786;2023-01-24T04:41:42;102393.72;;;1.79;91.48
74327;BME280;62745;51.060;13.786;2023-01-24T04:44:07;102391.09;;;1.95;91.31
74327;BME280;62745;51.060;13.786;2023-01-24T04:46:32;102370.16;;;1.60;91.65
74327;BME280;62745;51.060;13.786;2023-01-24T04:48:58;102382.91;;;1.68;92.10
74327;BME280;62745;51.060;13.786;2023-01-24T04:51:23;102386.16;;;1.73;91.72
74327;BME280;62745;51.060;13.786;2023-01-24T04:53:48;102374.28;;;1.48;92.69
74327;BME280;62745;51.060;13.786;2023-01-24T04:56:14;102394.63;;;1.62;92.62
74327;BME280;62745;51.060;13.786;2023-01-24T04:58:42;102407.72;;;1.64;92.40
74327;BME280;62745;51.060;13.786;2023-01-24T05:01:07;102379.34;;;1.53;92.77
74327;BME280;62745;51.060;13.786;2023-01-24T05:03:33;102383.66;;;1.54;92.28
74327;BME280;62745;51.060;13.786;2023-01-24T05:05:58;102404.56;;;1.57;92.88
74327;BME280;62745;51.060;13.786;2023-01-24T05:08:23;102413.84;;;1.64;92.91
74327;BME280;62745;51.060;13.786;2023-01-24T05:10:48;102375.81;;;1.37;92.67
74327;BME280;62745;51.060;13.786;2023-01-24T05:13:14;102391.78;;;1.49;93.02
74327;BME280;62745;51.060;13.786;2023-01-24T05:15:46;102397.84;;;1.52;93.28
74327;BME280;62745;51.060;13.786;2023-01-24T05:18:12;102406.94;;;1.62;93.09
74327;BME280;62745;51.060;13.786;2023-01-24T05:20:37;102419.53;;;1.57;93.02
74327;BME280;62745;51.060;13.786;2023-01-24T05:23:02;102403.13;;;1.52;92.82
74327;BME280;62745;51.060;13.786;2023-01-24T05:25:28;102416.41;;;1.81;92.71
74327;BME280;62745;51.060;13.786;2023-01-24T05:27:53;102382.47;;;1.60;91.94
74327;BME280;62745;51.060;13.786;2023-01-24T05:30:18;102389.28;;;1.64;92.17
74327;BME280;62745;51.060;13.786;2023-01-24T05:32:44;102433.34;;;1.77;92.42
74327;BME280;62745;51.060;13.786;2023-01-24T05:35:09;102409.19;;;1.69;93.02
74327;BME280;62745;51.060;13.786;2023-01-24T05:37:38;102422.34;;;2.02;92.17
74327;BME280;62745;51.060;13.786;2023-01-24T05:40:05;102413.72;;;1.99;91.76
74327;BME280;62745;51.060;13.786;2023-01-24T05:42:30;102400.44;;;1.85;92.37
74327;BME280;62745;51.060;13.786;2023-01-24T05:44:56;102433.63;;;1.89;91.54
74327;BME280;62745;51.060;13.786;2023-01-24T05:47:21;102381.50;;;1.78;91.51
74327;BME280;62745;51.060;13.786;2023-01-24T05:49:47;102387.72;;;1.93;90.09
74327;BME280;62745;51.060;13.786;2023-01-24T05:52:12;102395.72;;;1.91;90.76
74327;BME280;62745;51.060;13.786;2023-01-24T05:54:38;102395.84;;;1.72;91.34
74327;BME280;62745;51.060;13.786;2023-01-24T05:57:03;102424.63;;;1.93;91.05
74327;BME280;62745;51.060;13.786;2023-01-24T05:59:29;102407.25;;;1.73;91.36
74327;BME280;62745;51.060;13.786;2023-01-24T06:01:54;102410.22;;;1.83;91.00
74327;BME280;62745;51.060;13.786;2023-01-24T06:04:20;102441.56;;;2.20;90.16
74327;BME280;62745;51.060;13.786;2023-01-24T06:06:45;102440.56;;;2.23;90.15
74327;BME280;62745;51.060;13.786;2023-01-24T06:09:10;102406.25;;;2.07;89.84
74327;BME280;62745;51.060;13.786;2023-01-24T06:11:36;102412.19;;;1.95;90.97
74327;BME280;62745;51.060;13.786;2023-01-24T06:14:01;102423.44;;;2.14;90.43
74327;BME280;62745;51.060;13.786;2023-01-24T06:16:27;102428.19;;;1.92;90.03
74327;BME280;62745;51.060;13.786;2023-01-24T06:18:53;102407.75;;;1.79;91.51
74327;BME280;62745;51.060;13.786;2023-01-24T06:23:47;102431.94;;;2.03;89.17
74327;BME280;62745;51.060;13.786;2023-01-24T06:26:13;102407.28;;;1.89;90.45
74327;BME280;62745;51.060;13.786;2023-01-24T06:28:39;102458.06;;;2.24;89.81
74327;BME280;62745;51.060;13.786;2023-01-24T06:34:18;102466.84;;;2.56;88.85
74327;BME280;62745;51.060;13.786;2023-01-24T06:39:38;102428.03;;;2.42;88.16
74327;BME280;62745;51.060;13.786;2023-01-24T06:42:04;102438.00;;;2.37;89.21
74327;BME280;62745;51.060;13.786;2023-01-24T06:44:29;102454.41;;;2.74;88.28
74327;BME280;62745;51.060;13.786;2023-01-24T06:46:55;102439.34;;;2.44;87.87
74327;BME280;62745;51.060;13.786;2023-01-24T06:49:20;102454.06;;;2.64;87.77
74327;BME280;62745;51.060;13.786;2023-01-24T06:51:51;102448.28;;;2.41;88.46
74327;BME280;62745;51.060;13.786;2023-01-24T06:54:17;102471.44;;;2.21;89.70
74327;BME280;62745;51.060;13.786;2023-01-24T06:56:42;102447.00;;;2.17;90.11
74327;BME280;62745;51.060;13.786;2023-01-24T06:59:08;102463.44;;;2.38;89.94
74327;BME280;62745;51.060;13.786;2023-01-24T07:01:33;102448.88;;;2.31;89.14
74327;BME280;62745;51.060;13.786;2023-01-24T07:03:58;102428.97;;;2.09;89.27
74327;BME280;62745;51.060;13.786;2023-01-24T07:06:23;102444.88;;;2.08;91.00
74327;BME280;62745;51.060;13.786;2023-01-24T07:08:49;102459.84;;;2.23;89.90
74327;BME280;62745;51.060;13.786;2023-01-24T07:11:14;102459.41;;;2.15;89.79
74327;BME280;62745;51.060;13.786;2023-01-24T07:13:40;102433.63;;;1.89;89.75
74327;BME280;62745;51.060;13.786;2023-01-24T07:16:05;102465.53;;;2.31;89.26
74327;BME280;62745;51.060;13.786;2023-01-24T07:18:31;102448.94;;;1.98;90.80
74327;BME280;62745;51.060;13.786;2023-01-24T07:20:56;102462.72;;;2.03;90.31
74327;BME280;62745;51.060;13.786;2023-01-24T07:23:26;102475.00;;;2.20;90.69
74327;BME280;62745;51.060;13.786;2023-01-24T07:25:56;102451.16;;;2.05;90.34
74327;BME280;62745;51.060;13.786;2023-01-24T07:28:21;102469.94;;;2.15;90.20
74327;BME280;62745;51.060;13.786;2023-01-24T07:30:48;102462.72;;;2.34;89.63
74327;BME280;62745;51.060;13.786;2023-01-24T07:33:14;102462.72;;;2.34;89.68
74327;BME280;62745;51.060;13.786;2023-01-24T07:35:41;102466.75;;;2.41;89.55
74327;BME280;62745;51.060;13.786;2023-01-24T07:38:06;102458.16;;;2.69;88.09
74327;BME280;62745;51.060;13.786;2023-01-24T07:40:33;102470.81;;;2.63;87.56
74327;BME280;62745;51.060;13.786;2023-01-24T07:42:59;102459.00;;;2.54;89.17
74327;BME280;62745;51.060;13.786;2023-01-24T07:45:25;102431.69;;;2.24;89.04
74327;BME280;62745;51.060;13.786;2023-01-24T07:47:54;102445.28;;;2.32;88.62
74327;BME280;62745;51.060;13.786;2023-01-24T07:50:20;102442.66;;;2.32;88.13
74327;BME280;62745;51.060;13.786;2023-01-24T07:52:45;102455.25;;;2.42;88.52
74327;BME280;62745;51.060;13.786;2023-01-24T07:55:10;102450.25;;;2.38;87.82
74327;BME280;62745;51.060;13.786;2023-01-24T07:57:36;102498.41;;;2.73;88.11
74327;BME280;62745;51.060;13.786;2023-01-24T08:00:02;102471.19;;;2.57;87.70
74327;BME280;62745;51.060;13.786;2023-01-24T08:02:27;102450.34;;;2.36;88.17
74327;BME280;62745;51.060;13.786;2023-01-24T08:04:52;102472.03;;;2.57;88.70
74327;BME280;62745;51.060;13.786;2023-01-24T08:07:18;102476.94;;;2.48;88.98
74327;BME280;62745;51.060;13.786;2023-01-24T08:09:47;102482.03;;;2.35;88.63
74327;BME280;62745;51.060;13.786;2023-01-24T08:12:13;102500.28;;;2.39;88.95
74327;BME280;62745;51.060;13.786;2023-01-24T08:14:39;102491.16;;;2.29;88.75
74327;BME280;62745;51.060;13.786;2023-01-24T08:17:04;102483.78;;;2.36;89.45
74327;BME280;62745;51.060;13.786;2023-01-24T08:19:29;102511.06;;;2.66;89.11
74327;BME280;62745;51.060;13.786;2023-01-24T08:21:55;102497.19;;;2.47;88.29
74327;BME280;62745;51.060;13.786;2023-01-24T08:24:20;102496.09;;;2.67;88.22
74327;BME280;62745;51.060;13.786;2023-01-24T08:26:45;102517.19;;;2.83;86.96
74327;BME280;62745;51.060;13.786;2023-01-24T08:29:13;102520.69;;;2.83;87.67
74327;BME280;62745;51.060;13.786;2023-01-24T08:31:39;102518.50;;;2.76;87.59
74327;BME280;62745;51.060;13.786;2023-01-24T08:34:04;102493.03;;;2.43;89.09
74327;BME280;62745;51.060;13.786;2023-01-24T08:36:29;102483.78;;;2.36;88.37
74327;BME280;62745;51.060;13.786;2023-01-24T08:38:55;102500.97;;;2.43;89.04
74327;BME280;62745;51.060;13.786;2023-01-24T08:41:20;102500.50;;;2.51;89.09
74327;BME280;62745;51.060;13.786;2023-01-24T08:43:45;102529.13;;;2.58;89.67
74327;BME280;62745;51.060;13.786;2023-01-24T08:46:10;102515.84;;;2.76;88.67
74327;BME280;62745;51.060;13.786;2023-01-24T08:48:36;102506.16;;;2.76;87.78
74327;BME280;62745;51.060;13.786;2023-01-24T08:51:04;102530.63;;;3.10;87.39
74327;BME280;62745;51.060;13.786;2023-01-24T08:53:30;102533.78;;;2.85;87.46
74327;BME280;62745;51.060;13.786;2023-01-24T08:55:55;102523.41;;;2.82;88.12
74327;BME280;62745;51.060;13.786;2023-01-24T08:58:21;102533.47;;;2.91;87.39
74327;BME280;62745;51.060;13.786;2023-01-24T09:00:46;102501.34;;;2.83;87.11
74327;BME280;62745;51.060;13.786;2023-01-24T09:03:14;102497.56;;;2.72;87.42
74327;BME280;62745;51.060;13.786;2023-01-24T09:05:41;102519.59;;;2.87;87.80
74327;BME280;62745;51.060;13.786;2023-01-24T09:08:06;102496.78;;;2.70;87.31
74327;BME280;62745;51.060;13.786;2023-01-24T09:10:31;102508.53;;;2.81;87.84
74327;BME280;62745;51.060;13.786;2023-01-24T09:12:57;102546.03;;;3.01;88.37
74327;BME280;62745;51.060;13.786;2023-01-24T09:15:22;102493.72;;;2.62;87.97
74327;BME280;62745;51.060;13.786;2023-01-24T09:17:47;102515.50;;;2.82;87.51
74327;BME280;62745;51.060;13.786;2023-01-24T09:20:12;102534.06;;;2.80;87.68
74327;BME280;62745;51.060;13.786;2023-01-24T09:22:38;102513.63;;;2.84;87.49
74327;BME280;62745;51.060;13.786;2023-01-24T09:25:04;102528.28;;;2.74;87.80
74327;BME280;62745;51.060;13.786;2023-01-24T09:27:30;102489.03;;;2.52;88.10
74327;BME280;62745;51.060;13.786;2023-01-24T09:29:55;102539.78;;;2.72;87.75
74327;BME280;62745;51.060;13.786;2023-01-24T09:32:21;102486.31;;;2.37;87.70
74327;BME280;62745;51.060;13.786;2023-01-24T09:34:46;102506.50;;;2.54;87.04
74327;BME280;62745;51.060;13.786;2023-01-24T09:37:15;102533.78;;;3.00;87.05
74327;BME280;62745;51.060;13.786;2023-01-24T09:39:41;102498.72;;;2.67;87.70
74327;BME280;62745;51.060;13.786;2023-01-24T09:42:13;102529.13;;;2.74;87.88
74327;BME280;62745;51.060;13.786;2023-01-24T09:44:58;102493.13;;;2.41;87.94
74327;BME280;62745;51.060;13.786;2023-01-24T09:47:50;102528.69;;;2.82;87.87
74327;BME280;62745;51.060;13.786;2023-01-24T09:50:16;102535.34;;;2.73;88.24
74327;BME280;62745;51.060;13.786;2023-01-24T09:52:45;102517.13;;;2.68;88.11
74327;BME280;62745;51.060;13.786;2023-01-24T09:55:34;102516.53;;;2.79;88.04
74327;BME280;62745;51.060;13.786;2023-01-24T09:58:04;102528.00;;;2.94;87.55
74327;BME280;62745;51.060;13.786;2023-01-24T10:03:32;102535.53;;;2.70;88.38
74327;BME280;62745;51.060;13.786;2023-01-24T10:06:08;102530.41;;;2.67;88.78
74327;BME280;62745;51.060;13.786;2023-01-24T10:09:18;102528.78;;;2.96;88.35
74327;BME280;62745;51.060;13.786;2023-01-24T10:16:52;102529.97;;;2.90;88.28
74327;BME280;62745;51.060;13.786;2023-01-24T10:19:42;102520.19;;;2.77;88.05
74327;BME280;62745;51.060;13.786;2023-01-24T10:25:20;102514.66;;;2.81;88.43
74327;BME280;62745;51.060;13.786;2023-01-24T10:27:51;102517.69;;;3.05;87.33
74327;BME280;62745;51.060;13.786;2023-01-24T10:30:22;102514.81;;;2.94;87.60
74327;BME280;62745;51.060;13.786;2023-01-24T10:32:52;102519.06;;;2.96;88.41
74327;BME280;62745;51.060;13.786;2023-01-24T10:35:23;102507.16;;;2.89;87.47
74327;BME280;62745;51.060;13.786;2023-01-24T10:37:56;102505.66;;;3.15;89.41
74327;BME280;62745;51.060;13.786;2023-01-24T10:40:24;102510.91;;;3.31;86.76
74327;BME280;62745;51.060;13.786;2023-01-24T10:42:52;102512.31;;;3.22;86.66
74327;BME280;62745;51.060;13.786;2023-01-24T10:50:43;102506.13;;;3.38;85.45
74327;BME280;62745;51.060;13.786;2023-01-24T10:53:27;102507.50;;;3.29;86.65
74327;BME280;62745;51.060;13.786;2023-01-24T10:56:01;102490.19;;;3.09;86.57
74327;BME280;62745;51.060;13.786;2023-01-24T10:58:32;102501.78;;;3.07;87.59
74327;BME280;62745;51.060;13.786;2023-01-24T11:01:04;102504.66;;;3.02;87.52
74327;BME280;62745;51.060;13.786;2023-01-24T11:03:31;102501.97;;;3.18;87.00
74327;BME280;62745;51.060;13.786;2023-01-24T11:06:00;102504.75;;;3.00;88.13
74327;BME280;62745;51.060;13.786;2023-01-24T11:08:34;102506.53;;;2.84;87.79
74327;BME280;62745;51.060;13.786;2023-01-24T11:11:01;102496.25;;;2.95;87.56
74327;BME280;62745;51.060;13.786;2023-01-24T11:16:06;102490.59;;;3.01;88.03
74327;BME280;62745;51.060;13.786;2023-01-24T11:18:58;102502.38;;;2.96;87.97
74327;BME280;62745;51.060;13.786;2023-01-24T11:21:25;102497.63;;;2.87;87.67
74327;BME280;62745;51.060;13.786;2023-01-24T11:26:36;102501.34;;;2.83;88.64
74327;BME280;62745;51.060;13.786;2023-01-24T11:29:14;102490.97;;;2.95;88.29
74327;BME280;62745;51.060;13.786;2023-01-24T11:34:56;102492.88;;;2.78;89.02
74327;BME280;62745;51.060;13.786;2023-01-24T13:21:20;102467.69;;;3.32;86.28
74327;BME280;62745;51.060;13.786;2023-01-24T13:26:40;102453.50;;;3.19;86.44
74327;BME280;62745;51.060;13.786;2023-01-24T13:29:12;102473.88;;;3.17;86.28
74327;BME280;62745;51.060;13.786;2023-01-24T13:31:55;102463.53;;;2.98;87.46
74327;BME280;62745;51.060;13.786;2023-01-24T13:34:30;102462.59;;;3.29;86.25
74327;BME280;62745;51.060;13.786;2023-01-24T13:36:56;102460.72;;;3.31;86.15
74327;BME280;62745;51.060;13.786;2023-01-24T13:39:33;102455.84;;;3.09;86.95
74327;BME280;62745;51.060;13.786;2023-01-24T13:44:38;102461.00;;;3.26;85.89
74327;BME280;62745;51.060;13.786;2023-01-24T13:47:22;102450.66;;;3.38;85.46
74327;BME280;62745;51.060;13.786;2023-01-24T13:54:56;102461.34;;;3.79;84.10
74327;BME280;62745;51.060;13.786;2023-01-24T13:57:25;102451.88;;;3.46;85.63
74327;BME280;62745;51.060;13.786;2023-01-24T14:00:02;102435.34;;;3.43;85.33
74327;BME280;62745;51.060;13.786;2023-01-24T14:02:30;102448.09;;;3.36;86.29
74327;BME280;62745;51.060;13.786;2023-01-24T14:04:57;102448.00;;;3.38;85.74
74327;BME280;62745;51.060;13.786;2023-01-24T14:07:28;102455.69;;;3.56;84.78
74327;BME280;62745;51.060;13.786;2023-01-24T14:10:02;102449.94;;;3.20;86.51
74327;BME280;62745;51.060;13.786;2023-01-24T14:12:31;102452.00;;;3.15;87.06
74327;BME280;62745;51.060;13.786;2023-01-24T14:15:02;102463.69;;;3.11;87.43
74327;BME280;62745;51.060;13.786;2023-01-24T14:17:49;102465.78;;;3.20;87.82
74327;BME280;62745;51.060;13.786;2023-01-24T14:20:34;102468.44;;;3.34;87.65
74327;BME280;62745;51.060;13.786;2023-01-24T14:23:04;102462.69;;;3.27;87.35
74327;BME280;62745;51.060;13.786;2023-01-24T14:26:02;102464.66;;;2.94;88.17
74327;BME280;62745;51.060;13.786;2023-01-24T14:28:33;102465.50;;;2.94;89.39
74327;BME280;62745;51.060;13.786;2023-01-24T14:31:28;102471.63;;;2.95;89.18
74327;BME280;62745;51.060;13.786;2023-01-24T14:34:06;102470.88;;;2.93;88.76
74327;BME280;62745;51.060;13.786;2023-01-24T14:36:37;102478.44;;;2.99;89.08
74327;BME280;62745;51.060;13.786;2023-01-24T14:39:12;102462.13;;;2.77;89.43
74327;BME280;62745;51.060;13.786;2023-01-24T14:41:39;102466.47;;;2.78;88.85
74327;BME280;62745;51.060;13.786;2023-01-24T14:44:16;102483.34;;;2.75;89.71
74327;BME280;62745;51.060;13.786;2023-01-24T14:46:41;102464.44;;;2.67;89.83
74327;BME280;62745;51.060;13.786;2023-01-24T14:49:13;102473.63;;;2.60;90.65
74327;BME280;62745;51.060;13.786;2023-01-24T14:51:43;102452.97;;;2.36;90.32
74327;BME280;62745;51.060;13.786;2023-01-24T14:54:21;102477.72;;;2.65;90.62
74327;BME280;62745;51.060;13.786;2023-01-24T14:56:47;102457.22;;;2.55;91.27
74327;BME280;62745;51.060;13.786;2023-01-24T14:59:13;102456.97;;;2.59;90.27
74327;BME280;62745;51.060;13.786;2023-01-24T15:01:39;102469.56;;;2.54;91.27
74327;BME280;62745;51.060;13.786;2023-01-24T15:04:05;102471.16;;;2.72;90.81
74327;BME280;62745;51.060;13.786;2023-01-24T15:06:30;102482.22;;;2.79;90.95
74327;BME280;62745;51.060;13.786;2023-01-24T15:09:02;102475.72;;;2.85;90.27
74327;BME280;62745;51.060;13.786;2023-01-24T15:11:31;102486.66;;;2.79;90.64
74327;BME280;62745;51.060;13.786;2023-01-24T15:14:01;102473.09;;;2.85;90.01
74327;BME280;62745;51.060;13.786;2023-01-24T15:16:38;102492.09;;;2.91;89.95
74327;BME280;62745;51.060;13.786;2023-01-24T15:21:49;102490.13;;;2.95;88.63
74327;BME280;62745;51.060;13.786;2023-01-24T15:24:22;102479.19;;;3.01;88.35
74327;BME280;62745;51.060;13.786;2023-01-24T15:26:48;102470.13;;;2.91;89.11
74327;BME280;62745;51.060;13.786;2023-01-24T15:29:43;102489.94;;;2.82;89.69
74327;BME280;62745;51.060;13.786;2023-01-24T15:32:30;102466.06;;;2.69;90.33
74327;BME280;62745;51.060;13.786;2023-01-24T15:38:21;102486.97;;;2.88;89.75
74327;BME280;62745;51.060;13.786;2023-01-24T15:40:59;102477.66;;;2.97;89.15